METAR Data

Data at: 1741 UTC 21 Nov 2018

METAR for:KCON (Concord Muni, NH, US)
Text:KCON 211651Z AUTO 18007KT 10SM OVC037 M01/M02 A2985 RMK AO2 SLP112 T10111022
Temperature: -1.1°C ( 30°F)
Dewpoint: -2.2°C ( 28°F) [RH = 92%]
Pressure (altimeter):29.85 inches Hg (1010.9 mb) [Sea level pressure: 1011.2 mb]
Winds:from the S (180 degrees) at 8 MPH (7 knots; 3.6 m/s)
Visibility:10 or more sm (16+ km)
Ceiling:3700 feet AGL
Clouds: overcast cloud deck at 3700 feet AGL
QC Flag:automated observation with no human augmentation